Curdworth, United Kingdom
Current Conditions -  °F | °C
As of 12:20 AM on Saturday 25 Oct 2014 (Local Time) from EGBB Reporting Station
Clear Clear  
Wind Chill: 46°   Ceiling: Unl
Heat Index: 48°   Visibility: 6mi
Dew Point: 46°   Wind: 6mph
Humidity: 93%   Direction: 210°SSW
Pressure: 29.97"   Gusts: NA
Location:  52.53°N, 1.74°W
Report Text: EGBB 242320Z 21005KT 170V240 CAVOK 09/08 Q1015
Loading
Personal Weather Stations






























Interactive Weather Map
Tropical Storm Tracking
New forecast layout! Learn more

10-Day Weather Forecast

Advertisements
Track Severe Weather on mobile